RUK693 EGCC-LOWW
Flight info
| Callsign | RUK693 |
|---|---|
| Flight time | N/A |
| Altitude | 35000 |
| Route | DESIG L603 LAMSO DCT EVELI DCT RKN DCT KUMER DCT GALMA DCT TALEG L620 PIKIB DCT OMELO DCT EVIKU DCT BITSI DCT MIKOV MIKOV8W |
| Aircraft | B738/M-SDE2E3FGHIRWXY/LB1 |
Departure
| Time | N/A |
|---|---|
| Airport | Manchester Airport (EGCC) |
Arrival
| Time | 2026-05-05 20:07 |
|---|---|
| Airport | Vienna International Airport (LOWW) |
| Time | Latitude | Longitude | Altitude | Speed | Heading |
|---|---|---|---|---|---|
| 2026-05-05 19:34 | 50.65761 | 14.26054 | 34776 ft | 466 kts | 140° |
| 2026-05-05 19:35 | 50.58544 | 14.36388 | 34763 ft | 468 kts | 140° |
| 2026-05-05 19:35 | 50.53711 | 14.43283 | 34758 ft | 469 kts | 140° |
| 2026-05-05 19:36 | 50.48876 | 14.50160 | 34756 ft | 469 kts | 140° |
| 2026-05-05 19:36 | 50.44052 | 14.57069 | 34750 ft | 470 kts | 138° |
| 2026-05-05 19:37 | 50.39384 | 14.64149 | 34752 ft | 470 kts | 137° |
| 2026-05-05 19:37 | 50.34686 | 14.71349 | 34748 ft | 469 kts | 137° |
| 2026-05-05 19:38 | 50.30011 | 14.78450 | 34748 ft | 468 kts | 138° |
| 2026-05-05 19:38 | 50.25357 | 14.85463 | 34752 ft | 467 kts | 138° |
| 2026-05-05 19:39 | 50.20670 | 14.92494 | 34751 ft | 467 kts | 138° |
| 2026-05-05 19:39 | 50.15992 | 14.99490 | 34749 ft | 466 kts | 138° |
| 2026-05-05 19:40 | 50.11306 | 15.06481 | 34749 ft | 466 kts | 138° |
| 2026-05-05 19:40 | 50.06622 | 15.13451 | 34750 ft | 465 kts | 139° |
| 2026-05-05 19:41 | 50.01936 | 15.20403 | 34749 ft | 465 kts | 139° |
| 2026-05-05 19:41 | 49.97245 | 15.27344 | 34747 ft | 466 kts | 138° |
| 2026-05-05 19:42 | 49.92542 | 15.34282 | 34751 ft | 467 kts | 139° |
| 2026-05-05 19:42 | 49.87815 | 15.41233 | 34433 ft | 473 kts | 139° |
| 2026-05-05 19:42 | 49.85414 | 15.44755 | 33871 ft | 474 kts | 139° |
| 2026-05-05 19:43 | 49.83827 | 15.47083 | 33443 ft | 474 kts | 139° |
| 2026-05-05 19:43 | 49.81429 | 15.50596 | 32782 ft | 474 kts | 138° |
| 2026-05-05 19:43 | 49.78254 | 15.55239 | 31866 ft | 475 kts | 138° |
| 2026-05-05 19:43 | 49.75853 | 15.58743 | 31147 ft | 476 kts | 138° |
| 2026-05-05 19:44 | 49.73443 | 15.62257 | 30406 ft | 477 kts | 138° |
| 2026-05-05 19:44 | 49.71027 | 15.65774 | 29643 ft | 477 kts | 138° |
| 2026-05-05 19:44 | 49.69401 | 15.68138 | 29329 ft | 469 kts | 138° |
| 2026-05-05 19:44 | 49.67107 | 15.71472 | 29212 ft | 447 kts | 138° |
| 2026-05-05 19:45 | 49.64883 | 15.74700 | 28853 ft | 433 kts | 138° |
| 2026-05-05 19:45 | 49.62701 | 15.77862 | 28144 ft | 428 kts | 138° |
| 2026-05-05 19:45 | 49.60534 | 15.80994 | 27390 ft | 425 kts | 138° |
| 2026-05-05 19:45 | 49.58385 | 15.84096 | 26698 ft | 420 kts | 138° |
| 2026-05-05 19:46 | 49.56271 | 15.87144 | 26071 ft | 413 kts | 138° |
| 2026-05-05 19:46 | 49.54184 | 15.90152 | 25437 ft | 407 kts | 138° |
| 2026-05-05 19:46 | 49.52127 | 15.93112 | 24775 ft | 402 kts | 138° |
| 2026-05-05 19:46 | 49.50093 | 15.96035 | 24111 ft | 397 kts | 139° |
| 2026-05-05 19:47 | 49.48089 | 15.98912 | 23472 ft | 392 kts | 139° |
| 2026-05-05 19:47 | 49.46107 | 16.01755 | 22801 ft | 387 kts | 139° |
| 2026-05-05 19:47 | 49.44143 | 16.04568 | 22089 ft | 385 kts | 139° |
| 2026-05-05 19:47 | 49.42193 | 16.07358 | 21397 ft | 381 kts | 139° |
| 2026-05-05 19:48 | 49.40264 | 16.10116 | 20737 ft | 377 kts | 139° |
| 2026-05-05 19:48 | 49.38352 | 16.12846 | 20084 ft | 373 kts | 139° |
| 2026-05-05 19:48 | 49.36474 | 16.15526 | 19628 ft | 364 kts | 139° |
| 2026-05-05 19:48 | 49.34641 | 16.18137 | 19202 ft | 355 kts | 139° |
| 2026-05-05 19:49 | 49.32851 | 16.20672 | 18801 ft | 346 kts | 141° |
| 2026-05-05 19:49 | 49.30901 | 16.22727 | 18416 ft | 336 kts | 155° |
| 2026-05-05 19:49 | 49.28778 | 16.24055 | 18230 ft | 323 kts | 165° |
| 2026-05-05 19:49 | 49.26585 | 16.24774 | 17937 ft | 324 kts | 171° |
| 2026-05-05 19:50 | 49.24300 | 16.25352 | 17591 ft | 345 kts | 172° |
| 2026-05-05 19:50 | 49.21887 | 16.25941 | 17189 ft | 354 kts | 172° |
| 2026-05-05 19:50 | 49.19459 | 16.26535 | 16768 ft | 353 kts | 172° |
| 2026-05-05 19:50 | 49.17042 | 16.27132 | 16364 ft | 350 kts | 172° |
| 2026-05-05 19:51 | 49.14652 | 16.27729 | 15959 ft | 348 kts | 172° |
| 2026-05-05 19:51 | 49.12259 | 16.28331 | 15555 ft | 346 kts | 172° |
| 2026-05-05 19:51 | 49.09899 | 16.28926 | 15165 ft | 343 kts | 172° |
| 2026-05-05 19:51 | 49.07550 | 16.29520 | 14768 ft | 341 kts | 172° |
| 2026-05-05 19:52 | 49.05217 | 16.30110 | 14389 ft | 338 kts | 172° |
| 2026-05-05 19:52 | 49.02908 | 16.30695 | 14010 ft | 335 kts | 172° |
| 2026-05-05 19:52 | 49.00615 | 16.31275 | 13620 ft | 333 kts | 172° |
| 2026-05-05 19:52 | 48.98366 | 16.31843 | 13244 ft | 331 kts | 172° |
| 2026-05-05 19:53 | 48.96105 | 16.32414 | 12866 ft | 328 kts | 172° |
| 2026-05-05 19:53 | 48.93833 | 16.32988 | 12483 ft | 326 kts | 172° |
| 2026-05-05 19:53 | 48.91626 | 16.33544 | 12113 ft | 324 kts | 172° |
| 2026-05-05 19:53 | 48.89410 | 16.34102 | 11742 ft | 321 kts | 172° |
| 2026-05-05 19:54 | 48.87214 | 16.34655 | 11374 ft | 319 kts | 172° |
| 2026-05-05 19:54 | 48.85030 | 16.35204 | 11002 ft | 317 kts | 172° |
| 2026-05-05 19:54 | 48.82869 | 16.35747 | 10643 ft | 314 kts | 172° |
| 2026-05-05 19:54 | 48.80725 | 16.36285 | 10300 ft | 310 kts | 172° |
| 2026-05-05 19:55 | 48.78638 | 16.36809 | 10271 ft | 297 kts | 172° |
| 2026-05-05 19:55 | 48.76636 | 16.37312 | 10238 ft | 284 kts | 172° |
| 2026-05-05 19:55 | 48.74715 | 16.37794 | 10131 ft | 275 kts | 172° |
| 2026-05-05 19:55 | 48.72854 | 16.38259 | 10026 ft | 267 kts | 172° |
| 2026-05-05 19:56 | 48.71040 | 16.38713 | 9822 ft | 262 kts | 172° |
| 2026-05-05 19:56 | 48.69254 | 16.39159 | 9594 ft | 259 kts | 172° |
| 2026-05-05 19:56 | 48.67485 | 16.39599 | 9342 ft | 256 kts | 172° |
| 2026-05-05 19:56 | 48.65749 | 16.40032 | 9078 ft | 255 kts | 172° |
| 2026-05-05 19:57 | 48.64011 | 16.40464 | 8811 ft | 253 kts | 172° |
| 2026-05-05 19:57 | 48.62282 | 16.40895 | 8564 ft | 251 kts | 172° |
| 2026-05-05 19:57 | 48.60556 | 16.41324 | 8298 ft | 251 kts | 173° |
| 2026-05-05 19:57 | 48.58843 | 16.41750 | 8063 ft | 249 kts | 173° |
| 2026-05-05 19:58 | 48.57134 | 16.42174 | 7787 ft | 249 kts | 173° |
| 2026-05-05 19:58 | 48.55446 | 16.42594 | 7695 ft | 241 kts | 173° |
| 2026-05-05 19:58 | 48.53812 | 16.42999 | 7583 ft | 235 kts | 173° |
| 2026-05-05 19:58 | 48.52219 | 16.43396 | 7478 ft | 227 kts | 173° |
| 2026-05-05 19:59 | 48.50689 | 16.43775 | 7400 ft | 218 kts | 173° |
| 2026-05-05 19:59 | 48.49214 | 16.44141 | 7319 ft | 210 kts | 173° |
| 2026-05-05 19:59 | 48.47789 | 16.44494 | 7240 ft | 207 kts | 173° |
| 2026-05-05 19:59 | 48.46356 | 16.44848 | 7121 ft | 211 kts | 173° |
| 2026-05-05 20:00 | 48.44889 | 16.45209 | 6889 ft | 216 kts | 173° |
| 2026-05-05 20:00 | 48.43395 | 16.45577 | 6642 ft | 216 kts | 173° |
| 2026-05-05 20:00 | 48.41921 | 16.45942 | 6407 ft | 215 kts | 173° |
| 2026-05-05 20:00 | 48.40451 | 16.46305 | 6151 ft | 214 kts | 173° |
| 2026-05-05 20:01 | 48.38985 | 16.46671 | 5906 ft | 214 kts | 172° |
| 2026-05-05 20:01 | 48.37532 | 16.47105 | 5698 ft | 211 kts | 170° |
| 2026-05-05 20:01 | 48.36096 | 16.47628 | 5425 ft | 213 kts | 168° |
| 2026-05-05 20:01 | 48.34670 | 16.48205 | 5172 ft | 211 kts | 168° |
| 2026-05-05 20:02 | 48.33271 | 16.48792 | 4878 ft | 207 kts | 168° |
| 2026-05-05 20:02 | 48.31901 | 16.49372 | 4596 ft | 202 kts | 168° |
| 2026-05-05 20:02 | 48.30561 | 16.49941 | 4331 ft | 198 kts | 168° |
| 2026-05-05 20:02 | 48.29254 | 16.50495 | 4084 ft | 192 kts | 168° |
| 2026-05-05 20:03 | 48.27990 | 16.51031 | 3825 ft | 186 kts | 168° |
| 2026-05-05 20:03 | 48.26762 | 16.51551 | 3566 ft | 180 kts | 168° |
| 2026-05-05 20:03 | 48.25590 | 16.52048 | 3354 ft | 170 kts | 168° |
| 2026-05-05 20:03 | 48.24475 | 16.52521 | 3122 ft | 163 kts | 168° |
| 2026-05-05 20:04 | 48.23407 | 16.52973 | 2922 ft | 157 kts | 168° |
| 2026-05-05 20:04 | 48.22350 | 16.53419 | 2711 ft | 158 kts | 168° |
| 2026-05-05 20:04 | 48.21306 | 16.53862 | 2495 ft | 155 kts | 167° |
| 2026-05-05 20:04 | 48.20279 | 16.54298 | 2303 ft | 151 kts | 166° |
| 2026-05-05 20:05 | 48.19274 | 16.54723 | 2100 ft | 147 kts | 166° |
| 2026-05-05 20:05 | 48.18323 | 16.55127 | 1930 ft | 135 kts | 164° |
| 2026-05-05 20:05 | 48.17443 | 16.55500 | 1766 ft | 127 kts | 163° |
| 2026-05-05 20:05 | 48.16571 | 16.55869 | 1569 ft | 130 kts | 163° |
| 2026-05-05 20:06 | 48.15695 | 16.56240 | 1384 ft | 131 kts | 163° |
| 2026-05-05 20:06 | 48.14817 | 16.56613 | 1211 ft | 132 kts | 163° |
| 2026-05-05 20:06 | 48.13944 | 16.56984 | 1047 ft | 132 kts | 163° |
| 2026-05-05 20:06 | 48.13051 | 16.57366 | 844 ft | 134 kts | 164° |
| 2026-05-05 20:07 | 48.12150 | 16.57741 | 674 ft | 135 kts | 164° |
| 2026-05-05 20:07 | 48.11276 | 16.58113 | 611 ft | 115 kts | 164° |
| 2026-05-05 20:07 | 48.10713 | 16.58354 | 608 ft | 53 kts | 164° |
| 2026-05-05 20:07 | 48.10509 | 16.58439 | 608 ft | 20 kts | 165° |
| 2026-05-05 20:08 | 48.10374 | 16.58470 | 608 ft | 19 kts | 181° |
| 2026-05-05 20:08 | 48.10244 | 16.58443 | 615 ft | 19 kts | 194° |
| 2026-05-05 20:08 | 48.10128 | 16.58387 | 617 ft | 16 kts | 219° |
| 2026-05-05 20:08 | 48.10088 | 16.58238 | 608 ft | 15 kts | 271° |
| 2026-05-05 20:09 | 48.10172 | 16.58163 | 613 ft | 15 kts | 344° |
| 2026-05-05 20:09 | 48.10270 | 16.58121 | 608 ft | 14 kts | 344° |
| 2026-05-05 20:09 | 48.10362 | 16.58083 | 608 ft | 14 kts | 344° |
| 2026-05-05 20:09 | 48.10461 | 16.58041 | 608 ft | 16 kts | 344° |
| 2026-05-05 20:10 | 48.10579 | 16.57991 | 608 ft | 19 kts | 344° |
| 2026-05-05 20:10 | 48.10717 | 16.57933 | 608 ft | 22 kts | 344° |
| 2026-05-05 20:10 | 48.10872 | 16.57868 | 613 ft | 24 kts | 344° |
| 2026-05-05 20:10 | 48.11009 | 16.57809 | 608 ft | 17 kts | 344° |
| 2026-05-05 20:11 | 48.11121 | 16.57758 | 608 ft | 16 kts | 334° |
| 2026-05-05 20:11 | 48.11191 | 16.57613 | 617 ft | 19 kts | 296° |
| 2026-05-05 20:11 | 48.11250 | 16.57432 | 608 ft | 20 kts | 296° |
| 2026-05-05 20:11 | 48.11310 | 16.57246 | 611 ft | 19 kts | 296° |
| 2026-05-05 20:12 | 48.11368 | 16.57067 | 612 ft | 19 kts | 296° |
| 2026-05-05 20:12 | 48.11425 | 16.56894 | 616 ft | 18 kts | 296° |
| 2026-05-05 20:12 | 48.11480 | 16.56727 | 614 ft | 18 kts | 296° |
| 2026-05-05 20:12 | 48.11532 | 16.56565 | 611 ft | 17 kts | 296° |
| 2026-05-05 20:13 | 48.11583 | 16.56409 | 608 ft | 16 kts | 296° |
| 2026-05-05 20:13 | 48.11632 | 16.56259 | 608 ft | 16 kts | 296° |
| 2026-05-05 20:13 | 48.11679 | 16.56115 | 616 ft | 16 kts | 296° |
| 2026-05-05 20:13 | 48.11730 | 16.55958 | 610 ft | 18 kts | 296° |
| 2026-05-05 20:14 | 48.11788 | 16.55780 | 608 ft | 20 kts | 296° |
| 2026-05-05 20:14 | 48.11851 | 16.55584 | 608 ft | 19 kts | 296° |
| 2026-05-05 20:14 | 48.11896 | 16.55414 | 613 ft | 18 kts | 292° |
| 2026-05-05 20:14 | 48.11950 | 16.55311 | 612 ft | 11 kts | 356° |
| 2026-05-05 20:15 | 48.12028 | 16.55360 | 608 ft | 13 kts | 26° |
| 2026-05-05 20:15 | 48.12095 | 16.55408 | 608 ft | 8 kts | 22° |
| 2026-05-05 20:15 | 48.12132 | 16.55358 | 608 ft | 8 kts | 294° |
| 2026-05-05 20:15 | 48.12135 | 16.55348 | 608 ft | 0 kts | 296° |